Time;durP1;ratioP1;P1;durP2;ratioP2;P2;SDS_P1;SDS_P2;PMS_P1;PMS_P2;Temp;Humidity;BMP_temperature;BMP_pressure;BME280_temperature;BME280_humidity;BME280_pressure;Samples;Min_cycle;Max_cycle;Signal;HPM_P1;HPM_P2
2023/08/15 00:01:41;;;;;;;3.35;3.05;;;23.00;99.90;;;;;;914898;152;27353;-75
2023/08/15 00:04:07;;;;;;;3.58;3.27;;;23.00;99.90;;;;;;915348;152;27446;-75
2023/08/15 00:06:34;;;;;;;5.20;3.27;;;23.00;99.90;;;;;;915144;152;27325;-75
2023/08/15 00:09:00;;;;;;;3.85;3.35;;;23.00;99.90;;;;;;916366;153;27413;-75
2023/08/15 00:11:27;;;;;;;3.30;3.10;;;23.00;99.90;;;;;;915672;153;27341;-75
2023/08/15 00:13:56;;;;;;;3.62;3.37;;;23.00;99.90;;;;;;914409;152;27401;-75
2023/08/15 00:16:20;;;;;;;5.90;3.20;;;22.90;99.90;;;;;;913987;152;27354;-75
2023/08/15 00:18:47;;;;;;;3.12;2.83;;;22.90;99.90;;;;;;913344;155;27476;-75
2023/08/15 00:21:13;;;;;;;3.20;2.95;;;22.90;99.90;;;;;;935343;149;27410;-75
2023/08/15 00:23:40;;;;;;;3.15;2.95;;;22.90;99.90;;;;;;934037;149;27374;-75
2023/08/15 00:26:07;;;;;;;3.98;3.45;;;22.90;99.90;;;;;;934629;149;27362;-75
2023/08/15 00:28:33;;;;;;;10.20;3.37;;;22.80;99.90;;;;;;933406;149;27805;-75
2023/08/15 00:31:00;;;;;;;4.58;3.22;;;22.80;99.90;;;;;;936669;149;27434;-73
2023/08/15 00:33:26;;;;;;;3.80;3.05;;;22.80;99.90;;;;;;935683;149;27354;-74
2023/08/15 00:35:53;;;;;;;2.95;2.65;;;22.80;99.90;;;;;;934216;149;27362;-74
2023/08/15 00:38:19;;;;;;;4.08;3.20;;;22.80;99.90;;;;;;934990;150;28038;-74
2023/08/15 00:40:46;;;;;;;3.52;3.22;;;22.70;99.90;;;;;;933774;149;27397;-74
2023/08/15 00:43:17;;;;;;;3.30;3.08;;;22.70;99.90;;;;;;936273;149;27352;-74
2023/08/15 00:45:39;;;;;;;4.03;3.12;;;22.70;99.90;;;;;;949206;148;27414;-75
2023/08/15 00:48:08;;;;;;;7.22;4.05;;;22.60;99.90;;;;;;928788;151;27484;-74
2023/08/15 00:50:35;;;;;;;3.92;3.62;;;22.60;99.90;;;;;;948277;148;27341;-74
2023/08/15 00:53:02;;;;;;;7.37;4.08;;;22.60;99.90;;;;;;950895;148;27344;-74
2023/08/15 00:55:28;;;;;;;4.55;3.60;;;22.60;99.90;;;;;;951208;148;27422;-75
2023/08/15 00:57:55;;;;;;;3.90;3.50;;;22.50;99.90;;;;;;928656;151;27464;-74
2023/08/15 01:00:21;;;;;;;4.00;3.22;;;22.50;99.90;;;;;;933540;150;27409;-74
2023/08/15 01:02:48;;;;;;;3.37;3.08;;;22.50;99.90;;;;;;948866;148;27430;-73
2023/08/15 01:05:17;;;;;;;5.40;3.50;;;22.50;99.90;;;;;;949321;148;27474;-75
2023/08/15 01:07:41;;;;;;;5.58;3.60;;;22.50;99.90;;;;;;947292;148;27471;-74
2023/08/15 01:10:08;;;;;;;3.60;3.30;;;22.50;99.90;;;;;;933124;150;27463;-74
2023/08/15 01:13:05;;;;;;;4.47;3.47;;;22.50;99.90;;;;;;933542;150;27441;-74
2023/08/15 01:15:31;;;;;;;4.03;3.70;;;22.50;99.90;;;;;;847724;161;27464;-76
2023/08/15 01:18:01;;;;;;;4.55;3.50;;;22.50;99.90;;;;;;880927;160;27927;-76
2023/08/15 01:20:27;;;;;;;3.70;3.30;;;22.40;99.90;;;;;;897863;151;27355;-76
2023/08/15 01:22:54;;;;;;;3.87;3.58;;;22.40;99.90;;;;;;948115;149;27334;-76
2023/08/15 01:25:21;;;;;;;4.62;3.87;;;22.40;99.90;;;;;;949193;149;27344;-76
2023/08/15 01:27:47;;;;;;;4.22;3.85;;;22.40;99.90;;;;;;948848;148;27292;-76
2023/08/15 01:30:14;;;;;;;4.83;3.90;;;22.40;99.90;;;;;;951537;148;27371;-76
2023/08/15 01:32:43;;;;;;;3.70;3.40;;;22.40;99.90;;;;;;949167;148;27343;-76
2023/08/15 01:35:12;;;;;;;5.60;3.52;;;22.40;99.90;;;;;;932241;151;27361;-77
2023/08/15 01:37:40;;;;;;;5.50;4.08;;;22.40;99.90;;;;;;932316;151;27385;-78
2023/08/15 01:40:06;;;;;;;4.28;3.65;;;22.40;99.90;;;;;;946926;148;27355;-78
2023/08/15 01:42:32;;;;;;;4.35;3.80;;;22.50;99.90;;;;;;930262;151;27456;-78
2023/08/15 01:44:59;;;;;;;4.22;3.87;;;22.50;99.90;;;;;;942869;148;27479;-78
2023/08/15 01:47:25;;;;;;;4.70;3.92;;;22.50;99.90;;;;;;935952;149;27336;-78
2023/08/15 01:49:52;;;;;;;4.20;3.60;;;22.50;99.90;;;;;;937693;149;28204;-77
2023/08/15 01:52:18;;;;;;;4.20;3.80;;;22.50;99.90;;;;;;937902;149;27356;-76
2023/08/15 01:54:45;;;;;;;4.22;3.83;;;22.50;99.90;;;;;;937773;149;27459;-76
2023/08/15 01:57:12;;;;;;;8.35;4.30;;;22.50;99.90;;;;;;935369;149;27657;-77
2023/08/15 01:59:38;;;;;;;4.35;3.92;;;22.50;99.90;;;;;;921558;152;27838;-77
2023/08/15 02:02:06;;;;;;;5.70;3.67;;;22.50;99.90;;;;;;933445;151;27386;-76
2023/08/15 02:04:31;;;;;;;4.40;3.98;;;22.50;99.90;;;;;;930301;149;28521;-77
2023/08/15 02:06:58;;;;;;;4.75;4.03;;;22.40;99.90;;;;;;922390;151;27332;-77
2023/08/15 02:09:25;;;;;;;6.45;4.20;;;22.40;99.90;;;;;;921291;153;27414;-74
2023/08/15 02:11:52;;;;;;;5.72;4.92;;;22.40;99.90;;;;;;933951;151;27789;-75
2023/08/15 02:14:18;;;;;;;4.83;4.05;;;22.40;99.90;;;;;;933059;151;27370;-75
2023/08/15 02:16:44;;;;;;;4.00;3.70;;;22.40;99.90;;;;;;933453;151;27337;-74
2023/08/15 02:19:12;;;;;;;4.30;3.92;;;22.40;99.90;;;;;;932920;151;27367;-74
2023/08/15 02:21:38;;;;;;;4.78;3.80;;;22.40;99.90;;;;;;932743;151;27468;-74
2023/08/15 02:24:04;;;;;;;4.17;3.77;;;22.30;99.90;;;;;;934038;151;27384;-74
2023/08/15 02:26:31;;;;;;;5.72;4.30;;;22.30;99.90;;;;;;933473;151;27370;-73
2023/08/15 02:28:57;;;;;;;5.37;4.85;;;22.30;99.90;;;;;;933687;151;27329;-73
2023/08/15 02:31:24;;;;;;;5.22;4.72;;;22.30;99.90;;;;;;932660;151;27318;-73
2023/08/15 02:33:50;;;;;;;6.40;4.70;;;22.30;99.90;;;;;;933558;151;27753;-74
2023/08/15 02:36:17;;;;;;;5.50;4.47;;;22.30;99.90;;;;;;933579;151;27394;-74
2023/08/15 02:38:44;;;;;;;4.97;4.58;;;22.30;99.90;;;;;;932904;151;27294;-73
2023/08/15 02:41:10;;;;;;;6.20;4.90;;;22.20;99.90;;;;;;933168;151;27357;-74
2023/08/15 02:43:37;;;;;;;4.90;4.40;;;22.30;99.90;;;;;;934059;151;27410;-74
2023/08/15 02:46:03;;;;;;;4.72;4.22;;;22.30;99.90;;;;;;930560;151;27441;-75
2023/08/15 02:48:30;;;;;;;5.35;4.40;;;22.30;99.90;;;;;;929301;151;27924;-74
2023/08/15 02:50:57;;;;;;;5.28;4.87;;;22.30;99.90;;;;;;919782;152;27434;-74
2023/08/15 02:53:23;;;;;;;5.50;4.60;;;22.40;99.90;;;;;;917329;152;27353;-75
2023/08/15 02:55:50;;;;;;;5.25;4.75;;;22.40;99.90;;;;;;935193;149;27328;-74
2023/08/15 02:58:16;;;;;;;4.55;4.20;;;22.40;99.90;;;;;;915398;153;27290;-74
2023/08/15 03:00:43;;;;;;;5.12;4.25;;;22.50;99.90;;;;;;928955;149;28368;-74
2023/08/15 03:03:10;;;;;;;6.17;4.37;;;22.50;99.90;;;;;;928555;151;27424;-74
2023/08/15 03:05:39;;;;;;;7.65;4.45;;;22.50;99.90;;;;;;929005;152;27343;-74
2023/08/15 03:08:05;;;;;;;5.33;4.78;;;22.60;99.90;;;;;;928598;152;27548;-74
2023/08/15 03:10:32;;;;;;;5.10;4.60;;;22.60;99.90;;;;;;928197;152;27371;-75
2023/08/15 03:12:59;;;;;;;5.33;4.83;;;22.60;99.90;;;;;;929160;152;27374;-75
2023/08/15 03:15:25;;;;;;;5.42;4.92;;;22.60;99.90;;;;;;929559;152;27416;-75
2023/08/15 03:17:52;;;;;;;6.47;4.53;;;22.70;99.90;;;;;;928695;152;27341;-75
2023/08/15 03:20:18;;;;;;;4.83;4.45;;;22.70;99.90;;;;;;928505;152;27400;-76
2023/08/15 03:22:45;;;;;;;5.20;4.70;;;22.70;99.90;;;;;;928614;151;27371;-76
2023/08/15 03:25:12;;;;;;;5.03;4.42;;;22.70;99.90;;;;;;929867;152;27433;-75
2023/08/15 03:27:38;;;;;;;4.60;4.22;;;22.70;99.90;;;;;;929532;152;27329;-75
2023/08/15 03:30:05;;;;;;;4.92;4.50;;;22.70;99.90;;;;;;929339;152;27352;-75
2023/08/15 03:32:32;;;;;;;4.95;4.53;;;22.70;99.90;;;;;;929302;151;27515;-75
2023/08/15 03:34:58;;;;;;;6.90;4.33;;;22.60;99.90;;;;;;920771;151;27416;-75
2023/08/15 03:37:26;;;;;;;4.87;4.50;;;22.60;99.90;;;;;;920182;151;27374;-75
2023/08/15 03:39:52;;;;;;;5.90;4.40;;;22.60;99.90;;;;;;935057;149;27293;-75
2023/08/15 03:42:18;;;;;;;4.55;4.20;;;22.60;99.90;;;;;;916188;153;27396;-75
2023/08/15 03:44:44;;;;;;;5.53;4.45;;;22.60;99.90;;;;;;919779;152;27346;-75
2023/08/15 03:47:11;;;;;;;4.85;4.33;;;22.60;99.90;;;;;;935354;149;27358;-75
2023/08/15 03:49:38;;;;;;;5.00;4.30;;;22.60;99.90;;;;;;915601;153;27495;-76
2023/08/15 03:52:04;;;;;;;4.78;4.35;;;22.60;99.90;;;;;;928621;152;27340;-75
2023/08/15 03:54:31;;;;;;;4.30;3.98;;;22.60;99.90;;;;;;929226;152;27418;-75
2023/08/15 03:56:57;;;;;;;4.67;4.35;;;22.60;99.90;;;;;;928509;152;28355;-75
2023/08/15 03:59:24;;;;;;;5.17;4.67;;;22.60;99.90;;;;;;928724;151;27335;-75
2023/08/15 04:01:51;;;;;;;4.75;4.35;;;22.60;99.90;;;;;;929565;152;27384;-75
2023/08/15 04:04:17;;;;;;;7.08;4.37;;;22.60;99.90;;;;;;929449;152;27347;-75
2023/08/15 04:06:44;;;;;;;5.35;4.85;;;22.60;99.90;;;;;;930061;152;27398;-75
2023/08/15 04:09:11;;;;;;;4.42;4.12;;;22.60;99.90;;;;;;929380;152;27471;-75
2023/08/15 04:11:37;;;;;;;6.92;4.83;;;22.60;99.90;;;;;;929817;152;27339;-75
2023/08/15 04:14:04;;;;;;;5.17;4.67;;;22.60;99.90;;;;;;928468;152;27362;-75
2023/08/15 04:16:30;;;;;;;5.28;4.78;;;22.60;99.90;;;;;;929565;152;27466;-75
2023/08/15 04:18:57;;;;;;;6.15;5.53;;;22.70;99.90;;;;;;929260;152;27343;-75
2023/08/15 04:21:23;;;;;;;5.95;4.80;;;22.70;99.90;;;;;;917926;152;27393;-75
2023/08/15 04:23:50;;;;;;;5.42;5.03;;;22.70;99.90;;;;;;935066;149;27412;-75
2023/08/15 04:26:17;;;;;;;6.35;4.70;;;22.80;99.90;;;;;;935771;150;27361;-75
2023/08/15 04:28:43;;;;;;;4.67;4.28;;;22.80;99.90;;;;;;935924;149;27318;-75
2023/08/15 04:31:10;;;;;;;5.08;4.67;;;22.80;99.90;;;;;;932984;149;27416;-75
2023/08/15 04:33:36;;;;;;;4.85;4.42;;;22.90;99.90;;;;;;934816;150;27401;-75
2023/08/15 04:36:03;;;;;;;5.20;4.37;;;22.90;99.90;;;;;;936505;149;27237;-75
2023/08/15 04:38:29;;;;;;;6.72;4.83;;;23.00;99.90;;;;;;936774;149;27780;-75
2023/08/15 04:40:56;;;;;;;5.00;4.60;;;23.00;99.90;;;;;;934678;149;27314;-75
2023/08/15 04:43:23;;;;;;;5.40;4.90;;;23.00;99.90;;;;;;935131;149;27408;-75
2023/08/15 04:45:49;;;;;;;6.03;5.00;;;23.10;99.90;;;;;;914360;153;27302;-75
2023/08/15 04:48:16;;;;;;;5.37;4.80;;;23.10;99.90;;;;;;917698;152;27396;-75
2023/08/15 04:50:42;;;;;;;5.08;4.65;;;23.20;99.90;;;;;;931661;151;27375;-75
2023/08/15 04:53:09;;;;;;;4.75;4.35;;;23.20;99.90;;;;;;931465;151;27298;-75
2023/08/15 04:55:36;;;;;;;5.20;4.75;;;23.20;99.90;;;;;;948285;148;27352;-75
2023/08/15 04:58:02;;;;;;;4.97;4.50;;;23.30;99.90;;;;;;934061;150;27400;-75
2023/08/15 05:00:29;;;;;;;4.80;4.33;;;23.30;99.90;;;;;;932385;151;27385;-75
2023/08/15 05:02:55;;;;;;;5.25;4.75;;;23.30;99.90;;;;;;947975;148;27364;-75
2023/08/15 05:05:22;;;;;;;5.05;4.65;;;23.30;99.90;;;;;;950557;148;27327;-75
2023/08/15 05:07:49;;;;;;;7.90;4.28;;;23.40;99.90;;;;;;948959;148;27643;-75
2023/08/15 05:10:15;;;;;;;4.65;4.20;;;23.50;99.90;;;;;;949943;148;27386;-75
2023/08/15 05:12:42;;;;;;;5.08;4.67;;;23.60;99.90;;;;;;932043;151;27358;-75
2023/08/15 05:15:09;;;;;;;6.87;4.25;;;23.60;99.90;;;;;;948973;148;27401;-76
2023/08/15 05:17:35;;;;;;;5.00;4.60;;;23.70;99.90;;;;;;931354;150;27354;-75
2023/08/15 05:20:03;;;;;;;4.85;4.55;;;23.80;99.90;;;;;;932860;150;27295;-78
2023/08/15 05:22:28;;;;;;;6.03;5.42;;;23.90;99.90;;;;;;948948;148;27710;-78
2023/08/15 05:24:55;;;;;;;5.28;4.78;;;24.00;99.90;;;;;;948977;148;28256;-78
2023/08/15 05:27:21;;;;;;;5.67;5.05;;;24.10;99.90;;;;;;949367;148;27423;-78
2023/08/15 05:29:48;;;;;;;7.12;4.75;;;24.20;99.90;;;;;;947574;149;27263;-78
2023/08/15 05:32:14;;;;;;;4.97;4.40;;;24.30;99.90;;;;;;948920;148;27426;-78
2023/08/15 05:34:41;;;;;;;4.62;4.25;;;24.50;99.90;;;;;;928798;151;27387;-78
2023/08/15 05:37:08;;;;;;;6.12;4.58;;;24.70;99.90;;;;;;947611;148;27347;-78
2023/08/15 05:39:34;;;;;;;5.30;4.25;;;25.10;99.90;;;;;;950000;148;27389;-78
2023/08/15 05:42:01;;;;;;;4.62;4.22;;;25.40;99.90;;;;;;946390;148;27327;-78
2023/08/15 05:44:27;;;;;;;4.33;3.95;;;25.80;99.90;;;;;;931184;151;27473;-76
2023/08/15 05:46:54;;;;;;;4.85;3.85;;;26.10;99.90;;;;;;949063;148;27432;-76
2023/08/15 05:49:21;;;;;;;4.72;3.67;;;26.50;99.90;;;;;;933413;150;27380;-76
2023/08/15 05:51:47;;;;;;;4.40;4.00;;;26.80;99.90;;;;;;955175;147;27318;-76
2023/08/15 05:54:14;;;;;;;4.53;3.67;;;27.00;99.90;;;;;;953732;147;27460;-76
2023/08/15 05:56:40;;;;;;;3.98;3.67;;;27.20;99.90;;;;;;955442;147;27440;-76
2023/08/15 05:59:07;;;;;;;5.17;3.90;;;27.30;99.90;;;;;;955277;147;27297;-76
2023/08/15 06:01:34;;;;;;;4.10;3.58;;;27.30;99.90;;;;;;954620;147;27268;-76
2023/08/15 06:04:01;;;;;;;4.25;3.77;;;27.30;99.90;;;;;;937207;150;27801;-76
2023/08/15 06:06:27;;;;;;;4.10;3.70;;;27.40;99.90;;;;;;954909;148;27357;-76
2023/08/15 06:08:53;;;;;;;4.45;3.72;;;27.40;99.90;;;;;;937771;149;27425;-76
2023/08/15 06:11:20;;;;;;;7.80;4.62;;;27.40;99.90;;;;;;954194;147;27295;-76
2023/08/15 06:13:47;;;;;;;4.83;3.58;;;27.70;99.90;;;;;;954244;147;27333;-76
2023/08/15 06:16:13;;;;;;;4.85;3.75;;;28.00;99.90;;;;;;954673;148;27460;-76
2023/08/15 06:18:40;;;;;;;5.17;3.15;;;28.60;99.90;;;;;;954769;147;27511;-76
2023/08/15 06:21:06;;;;;;;4.45;3.65;;;29.30;99.90;;;;;;955572;147;27257;-76
2023/08/15 06:23:33;;;;;;;4.58;2.92;;;30.10;99.90;;;;;;935590;150;27404;-76
2023/08/15 06:25:59;;;;;;;4.30;3.40;;;30.90;99.90;;;;;;937354;150;27349;-76
2023/08/15 06:28:26;;;;;;;3.27;2.98;;;31.60;99.90;;;;;;945273;149;27446;-76
2023/08/15 06:30:53;;;;;;;4.65;3.22;;;32.20;98.90;;;;;;944868;149;27469;-76
2023/08/15 06:33:19;;;;;;;3.52;2.92;;;32.80;97.40;;;;;;938231;150;26306;-76
2023/08/15 06:35:46;;;;;;;3.47;3.17;;;33.40;96.30;;;;;;954635;147;27391;-76
2023/08/15 06:38:12;;;;;;;3.25;2.92;;;34.00;94.00;;;;;;947339;151;27378;-76
2023/08/15 06:40:39;;;;;;;3.00;2.80;;;34.60;91.90;;;;;;937689;150;26286;-76
2023/08/15 06:43:06;;;;;;;3.20;2.90;;;35.10;88.10;;;;;;954824;147;28274;-77
2023/08/15 06:45:32;;;;;;;3.00;2.80;;;35.60;82.60;;;;;;954040;147;26611;-76
2023/08/15 06:47:59;;;;;;;4.10;3.05;;;35.90;79.00;;;;;;955079;147;26694;-75
2023/08/15 06:50:25;;;;;;;2.95;2.75;;;36.20;76.30;;;;;;953977;147;26280;-76
2023/08/15 06:52:52;;;;;;;4.25;3.00;;;36.50;75.00;;;;;;948736;148;26352;-76
2023/08/15 06:55:18;;;;;;;3.40;2.92;;;36.70;73.90;;;;;;948353;148;26224;-77
2023/08/15 06:57:45;;;;;;;3.08;2.77;;;37.00;73.00;;;;;;949053;148;26279;-76
2023/08/15 07:00:12;;;;;;;2.70;2.50;;;37.40;72.10;;;;;;948204;148;27312;-76
2023/08/15 07:02:39;;;;;;;2.67;2.47;;;37.80;70.90;;;;;;930746;151;26369;-76
2023/08/15 07:05:07;;;;;;;2.85;2.65;;;38.30;69.30;;;;;;947354;149;26275;-78
2023/08/15 07:07:32;;;;;;;2.60;2.40;;;38.70;67.60;;;;;;947237;148;26315;-76
2023/08/15 07:09:58;;;;;;;3.52;2.60;;;39.20;66.40;;;;;;948590;148;26316;-77
2023/08/15 07:12:25;;;;;;;3.20;2.60;;;39.70;64.90;;;;;;934674;151;26228;-77
2023/08/15 07:14:51;;;;;;;2.85;2.50;;;40.30;63.50;;;;;;951173;148;26335;-77
2023/08/15 07:17:18;;;;;;;2.62;2.42;;;40.80;62.20;;;;;;949683;148;26353;-78
2023/08/15 07:19:45;;;;;;;4.35;2.58;;;41.30;60.80;;;;;;932059;150;26407;-77
2023/08/15 07:22:11;;;;;;;3.35;2.80;;;41.80;59.50;;;;;;948147;149;26233;-76
2023/08/15 07:24:38;;;;;;;2.50;2.30;;;42.30;58.30;;;;;;949378;148;26274;-76
2023/08/15 07:27:04;;;;;;;2.77;2.40;;;42.80;57.40;;;;;;948571;148;26255;-77
2023/08/15 07:29:31;;;;;;;5.47;2.72;;;43.30;56.20;;;;;;948975;148;26320;-77
2023/08/15 07:31:58;;;;;;;2.75;2.37;;;43.80;55.20;;;;;;949266;148;26321;-76
2023/08/15 07:34:24;;;;;;;2.60;2.40;;;44.20;53.80;;;;;;948822;149;26249;-76
2023/08/15 07:36:51;;;;;;;2.35;2.25;;;44.60;52.70;;;;;;948862;148;26369;-77
2023/08/15 07:39:17;;;;;;;2.58;2.17;;;44.90;51.90;;;;;;947223;148;27059;-77
2023/08/15 07:41:44;;;;;;;2.27;2.08;;;45.30;51.20;;;;;;933924;150;26329;-77
2023/08/15 07:44:10;;;;;;;1.77;1.67;;;45.60;50.60;;;;;;948948;149;26313;-77
2023/08/15 07:46:37;;;;;;;2.25;2.12;;;46.00;49.60;;;;;;933077;150;26275;-76
2023/08/15 07:49:04;;;;;;;2.30;2.10;;;46.30;48.60;;;;;;945684;151;26353;-77
2023/08/15 07:51:31;;;;;;;2.52;2.10;;;46.60;47.60;;;;;;944193;151;26292;-76
2023/08/15 07:53:57;;;;;;;2.20;2.00;;;46.80;46.90;;;;;;931530;150;26681;-76
2023/08/15 07:56:23;;;;;;;2.47;1.98;;;47.00;46.30;;;;;;948678;149;26629;-76
2023/08/15 07:58:50;;;;;;;1.90;1.80;;;47.30;45.80;;;;;;949908;148;26653;-76
2023/08/15 08:01:17;;;;;;;2.15;1.90;;;47.60;45.20;;;;;;929390;151;26269;-76
2023/08/15 08:03:43;;;;;;;2.10;2.00;;;47.80;44.60;;;;;;931438;151;26217;-76
2023/08/15 08:06:10;;;;;;;2.60;2.40;;;48.00;43.90;;;;;;929884;151;26338;-77
2023/08/15 08:08:36;;;;;;;2.67;2.42;;;48.00;42.80;;;;;;949826;148;26319;-76
2023/08/15 08:11:03;;;;;;;5.12;2.47;;;47.90;41.90;;;;;;932666;151;26304;-75
2023/08/15 08:13:30;;;;;;;2.35;2.10;;;47.60;41.60;;;;;;933373;151;26357;-76
2023/08/15 08:15:56;;;;;;;2.87;2.60;;;47.30;41.80;;;;;;948525;148;26368;-76
2023/08/15 08:18:23;;;;;;;2.40;2.20;;;47.00;42.30;;;;;;948947;148;26201;-76
2023/08/15 08:20:50;;;;;;;2.47;2.27;;;47.00;42.70;;;;;;933509;151;26389;-76
2023/08/15 08:23:16;;;;;;;3.87;2.55;;;47.00;42.50;;;;;;927832;151;26388;-75
2023/08/15 08:25:42;;;;;;;2.87;2.60;;;47.20;42.70;;;;;;949401;148;26221;-75
2023/08/15 08:28:09;;;;;;;2.37;2.17;;;47.40;42.60;;;;;;931178;150;26216;-76
2023/08/15 08:30:36;;;;;;;2.02;1.87;;;47.70;42.10;;;;;;948895;148;26268;-75
2023/08/15 08:33:03;;;;;;;2.17;1.90;;;48.00;41.80;;;;;;931825;151;26292;-75
2023/08/15 08:35:29;;;;;;;3.27;2.37;;;48.30;41.10;;;;;;946821;148;26789;-75
2023/08/15 08:37:56;;;;;;;3.47;2.30;;;48.60;40.60;;;;;;948172;148;26251;-75
2023/08/15 08:40:22;;;;;;;2.58;1.90;;;48.80;40.00;;;;;;949070;148;26263;-76
2023/08/15 08:42:49;;;;;;;2.55;1.92;;;49.20;39.80;;;;;;952254;148;26264;-76
2023/08/15 08:45:15;;;;;;;2.33;1.77;;;49.30;39.30;;;;;;948281;148;26281;-75
2023/08/15 08:47:42;;;;;;;2.70;2.00;;;49.50;38.90;;;;;;932371;150;26255;-76
2023/08/15 08:50:11;;;;;;;2.33;1.87;;;49.70;38.30;;;;;;948378;148;26244;-76
2023/08/15 08:52:40;;;;;;;2.33;2.10;;;49.90;38.10;;;;;;932740;151;26339;-76
2023/08/15 08:55:07;;;;;;;2.40;1.75;;;50.00;37.60;;;;;;931653;151;26283;-75
2023/08/15 08:57:33;;;;;;;2.05;1.90;;;50.20;37.30;;;;;;948603;148;26281;-76
2023/08/15 09:00:00;;;;;;;2.08;1.62;;;50.30;36.40;;;;;;949681;148;26261;-77
2023/08/15 09:02:27;;;;;;;2.10;1.90;;;50.50;36.90;;;;;;931200;151;26268;-77
2023/08/15 09:04:54;;;;;;;2.17;2.02;;;50.60;36.20;;;;;;931735;151;26384;-77
2023/08/15 09:07:20;;;;;;;2.95;1.98;;;50.60;35.70;;;;;;947840;148;26258;-77
2023/08/15 09:09:46;;;;;;;2.10;1.90;;;50.50;35.50;;;;;;950776;148;26314;-77
2023/08/15 09:12:37;;;;;;;2.02;1.92;;;50.40;35.20;;;;;;948655;148;26352;-77
2023/08/15 09:15:09;;;;;;;2.10;1.90;;;50.20;35.10;;;;;;932588;151;26387;-77
2023/08/15 09:17:36;;;;;;;1.90;1.80;;;50.00;35.50;;;;;;949757;148;26243;-77
2023/08/15 09:20:11;;;;;;;1.85;1.70;;;49.90;35.40;;;;;;949767;148;26205;-77
2023/08/15 09:22:39;;;;;;;1.82;1.65;;;49.60;35.20;;;;;;948064;148;26344;-77
2023/08/15 09:25:04;;;;;;;2.00;1.82;;;49.60;34.90;;;;;;948128;148;26324;-77
2023/08/15 09:27:31;;;;;;;2.10;1.90;;;49.50;34.90;;;;;;932436;151;26514;-77
2023/08/15 09:29:57;;;;;;;2.12;1.90;;;49.50;35.00;;;;;;949658;148;26334;-77
2023/08/15 09:32:24;;;;;;;2.05;1.95;;;49.40;35.00;;;;;;949954;148;26264;-77
2023/08/15 09:34:51;;;;;;;2.30;1.98;;;49.40;34.80;;;;;;930700;150;26288;-77
2023/08/15 09:37:17;;;;;;;4.25;2.05;;;49.40;34.90;;;;;;950171;148;26320;-77
2023/08/15 09:39:44;;;;;;;2.08;1.75;;;49.40;34.90;;;;;;948115;148;26246;-77
2023/08/15 09:42:10;;;;;;;3.55;2.10;;;49.40;34.90;;;;;;948391;148;26273;-77
2023/08/15 09:44:38;;;;;;;2.05;1.95;;;49.40;35.00;;;;;;931191;151;26645;-77
2023/08/15 09:47:04;;;;;;;2.85;1.80;;;49.50;34.70;;;;;;930664;150;26385;-77
2023/08/15 09:49:30;;;;;;;2.50;1.80;;;49.50;34.30;;;;;;949046;148;26244;-77
2023/08/15 09:51:57;;;;;;;2.10;1.90;;;49.30;34.00;;;;;;948578;148;26313;-77
2023/08/15 09:54:24;;;;;;;1.77;1.67;;;49.10;33.40;;;;;;947237;148;26333;-77
2023/08/15 09:56:50;;;;;;;2.02;1.82;;;48.70;33.20;;;;;;928995;151;26342;-77
2023/08/15 09:59:17;;;;;;;2.10;2.00;;;48.20;33.30;;;;;;947405;148;26377;-77
2023/08/15 10:01:43;;;;;;;2.27;2.10;;;47.70;33.70;;;;;;930807;151;26291;-77
2023/08/15 10:04:13;;;;;;;2.75;2.55;;;47.00;33.80;;;;;;947747;148;26231;-77
2023/08/15 10:06:39;;;;;;;4.17;2.50;;;46.40;34.30;;;;;;930098;151;27953;-77
2023/08/15 10:09:06;;;;;;;2.67;2.40;;;45.80;34.90;;;;;;948972;148;26404;-77
2023/08/15 10:11:32;;;;;;;2.92;2.50;;;45.30;35.60;;;;;;931451;151;26202;-79
2023/08/15 10:13:59;;;;;;;2.58;2.37;;;44.70;35.90;;;;;;948182;148;26269;-79
2023/08/15 10:16:26;;;;;;;2.45;2.25;;;44.30;36.70;;;;;;949342;148;26245;-75
2023/08/15 10:18:55;;;;;;;2.30;2.20;;;44.00;37.00;;;;;;949353;148;26275;-79
2023/08/15 10:21:23;;;;;;;3.20;2.22;;;43.70;36.80;;;;;;947240;148;26360;-79
2023/08/15 10:23:48;;;;;;;2.45;2.25;;;43.40;37.80;;;;;;947722;148;27772;-79
2023/08/15 10:26:15;;;;;;;2.70;2.10;;;43.10;37.50;;;;;;950051;148;26234;-76
2023/08/15 10:28:42;;;;;;;2.60;2.22;;;43.00;37.90;;;;;;947175;148;27670;-78
2023/08/15 10:31:08;;;;;;;2.58;2.00;;;42.90;37.90;;;;;;945930;148;26263;-79
2023/08/15 10:33:35;;;;;;;2.05;1.90;;;42.80;37.20;;;;;;947591;148;26242;-79
2023/08/15 10:36:01;;;;;;;1.90;1.80;;;42.60;37.40;;;;;;946340;149;26276;-79
2023/08/15 10:38:30;;;;;;;2.00;1.85;;;42.50;37.30;;;;;;949122;148;27069;-77
2023/08/15 10:41:15;;;;;;;2.05;1.95;;;42.40;37.50;;;;;;932666;151;26307;-79
2023/08/15 10:43:41;;;;;;;3.02;1.60;;;42.20;37.60;;;;;;949747;148;26238;-79
2023/08/15 10:46:08;;;;;;;1.80;1.70;;;41.90;37.50;;;;;;946667;148;26224;-79
2023/08/15 10:48:50;;;;;;;1.55;1.45;;;41.70;38.00;;;;;;949182;148;26295;-79
2023/08/15 10:51:23;;;;;;;1.77;1.50;;;41.50;37.60;;;;;;945782;148;26369;-78
2023/08/15 10:53:49;;;;;;;2.33;1.40;;;41.10;37.60;;;;;;939796;148;26597;-79
2023/08/15 10:56:19;;;;;;;1.60;1.50;;;40.80;37.90;;;;;;917978;152;26285;-79
2023/08/15 10:58:48;;;;;;;2.00;1.70;;;40.50;38.20;;;;;;933429;149;26285;-79
2023/08/15 11:01:18;;;;;;;1.60;1.47;;;40.20;38.30;;;;;;932342;149;26261;-80
2023/08/15 11:03:44;;;;;;;1.40;1.30;;;39.90;38.60;;;;;;933866;149;26330;-79
2023/08/15 11:06:13;;;;;;;1.72;1.35;;;39.60;38.90;;;;;;935128;149;26258;-79
2023/08/15 11:08:47;;;;;;;1.70;1.60;;;39.40;39.40;;;;;;933533;149;26338;-76
2023/08/15 11:11:12;;;;;;;1.70;1.60;;;39.20;39.90;;;;;;934265;149;26264;-79
2023/08/15 11:13:41;;;;;;;3.70;2.05;;;39.10;40.10;;;;;;933608;149;26208;-79
2023/08/15 11:16:08;;;;;;;1.90;1.70;;;39.00;40.50;;;;;;933547;149;26253;-78
2023/08/15 11:18:35;;;;;;;2.67;1.60;;;39.10;40.60;;;;;;931613;149;26274;-75
2023/08/15 11:21:01;;;;;;;1.75;1.60;;;39.00;40.70;;;;;;931492;149;26338;-73
2023/08/15 11:23:28;;;;;;;1.80;1.70;;;39.00;41.00;;;;;;931385;150;26267;-74
2023/08/15 11:26:01;;;;;;;1.60;1.50;;;38.90;41.40;;;;;;929458;149;26357;-74
2023/08/15 11:28:27;;;;;;;1.85;1.72;;;38.90;41.10;;;;;;935413;149;26347;-75
2023/08/15 11:30:53;;;;;;;2.25;2.00;;;38.80;41.50;;;;;;933587;149;26381;-74
2023/08/15 11:33:20;;;;;;;1.80;1.70;;;38.70;41.30;;;;;;933109;149;26587;-73
2023/08/15 11:35:47;;;;;;;2.22;1.75;;;38.60;41.60;;;;;;914650;153;26264;-75
2023/08/15 11:38:13;;;;;;;1.87;1.70;;;38.40;41.70;;;;;;936198;149;26272;-76
2023/08/15 11:40:40;;;;;;;1.77;1.67;;;38.20;42.00;;;;;;928933;152;26277;-76
2023/08/15 11:43:06;;;;;;;3.45;1.90;;;38.10;42.10;;;;;;914000;152;26325;-76
2023/08/15 11:45:33;;;;;;;2.27;1.65;;;37.80;42.20;;;;;;919045;152;26280;-74
2023/08/15 11:48:05;;;;;;;2.00;1.80;;;37.60;42.30;;;;;;929615;152;26276;-76
2023/08/15 11:50:32;;;;;;;2.00;1.80;;;37.40;42.60;;;;;;919004;152;26287;-76
2023/08/15 11:52:59;;;;;;;2.60;1.75;;;37.10;43.00;;;;;;917183;152;27486;-73
2023/08/15 11:55:25;;;;;;;2.60;1.90;;;37.00;43.50;;;;;;946659;149;27473;-73
2023/08/15 11:57:52;;;;;;;2.17;1.98;;;36.80;44.40;;;;;;946992;149;26365;-74
2023/08/15 12:00:19;;;;;;;3.67;1.90;;;36.60;45.30;;;;;;949098;148;27328;-73
2023/08/15 12:02:45;;;;;;;2.20;2.00;;;36.40;45.50;;;;;;947850;149;27764;-76
2023/08/15 12:05:17;;;;;;;1.80;1.70;;;36.20;45.40;;;;;;927321;152;27383;-72
2023/08/15 12:07:44;;;;;;;3.27;1.90;;;36.00;44.90;;;;;;947257;149;27501;-73
2023/08/15 12:10:11;;;;;;;3.12;1.85;;;35.70;44.90;;;;;;948407;148;27324;-74
2023/08/15 12:12:38;;;;;;;1.90;1.80;;;35.50;45.00;;;;;;949135;149;27390;-76
2023/08/15 12:15:04;;;;;;;1.70;1.60;;;35.30;45.10;;;;;;932216;150;27390;-72
2023/08/15 12:17:30;;;;;;;1.55;1.45;;;35.00;45.50;;;;;;948347;149;27320;-73
2023/08/15 12:19:57;;;;;;;1.98;1.60;;;34.80;45.80;;;;;;948876;148;27334;-73
2023/08/15 12:22:24;;;;;;;1.65;1.55;;;34.60;46.20;;;;;;931060;150;27291;-73
2023/08/15 12:24:50;;;;;;;1.80;1.70;;;34.50;46.60;;;;;;934682;151;27387;-76
2023/08/15 12:27:17;;;;;;;1.80;1.70;;;34.30;46.90;;;;;;932619;151;27546;-73
2023/08/15 12:29:43;;;;;;;3.08;1.85;;;34.20;47.00;;;;;;932185;151;27334;-75
2023/08/15 12:32:10;;;;;;;1.57;1.47;;;34.00;47.20;;;;;;949653;148;27422;-74
2023/08/15 12:34:36;;;;;;;1.87;1.77;;;33.90;47.70;;;;;;949184;149;27343;-75
2023/08/15 12:37:03;;;;;;;2.65;1.98;;;33.90;48.20;;;;;;933032;151;27416;-74
2023/08/15 12:39:30;;;;;;;2.15;1.70;;;33.80;48.90;;;;;;933201;150;27370;-74
2023/08/15 12:41:56;;;;;;;1.72;1.60;;;33.80;49.00;;;;;;948262;148;27333;-75
2023/08/15 12:44:23;;;;;;;1.60;1.50;;;33.70;48.30;;;;;;949010;148;27345;-75
2023/08/15 12:46:49;;;;;;;2.10;1.70;;;33.70;49.00;;;;;;925823;151;27407;-75